sensor_id;sensor_type;location;lat;lon;timestamp;P1;durP1;ratioP1;P2;durP2;ratioP2
23242;SDS011;11790;49.578;11.214;2022-11-15T00:00:28;15.57;;;7.50;;
23242;SDS011;11790;49.578;11.214;2022-11-15T00:05:28;9.85;;;6.20;;
23242;SDS011;11790;49.578;11.214;2022-11-15T00:10:28;12.98;;;7.03;;
23242;SDS011;11790;49.578;11.214;2022-11-15T00:15:29;14.80;;;6.70;;
23242;SDS011;11790;49.578;11.214;2022-11-15T00:20:29;14.07;;;7.72;;
23242;SDS011;11790;49.578;11.214;2022-11-15T00:25:30;12.63;;;6.90;;
23242;SDS011;11790;49.578;11.214;2022-11-15T00:30:30;16.35;;;6.88;;
23242;SDS011;11790;49.578;11.214;2022-11-15T00:35:31;11.75;;;6.93;;
23242;SDS011;11790;49.578;11.214;2022-11-15T00:40:32;13.18;;;6.78;;
23242;SDS011;11790;49.578;11.214;2022-11-15T00:45:32;13.68;;;6.63;;
23242;SDS011;11790;49.578;11.214;2022-11-15T00:50:33;10.77;;;6.45;;
23242;SDS011;11790;49.578;11.214;2022-11-15T00:55:33;13.05;;;7.60;;
23242;SDS011;11790;49.578;11.214;2022-11-15T01:00:33;13.45;;;6.78;;
23242;SDS011;11790;49.578;11.214;2022-11-15T01:05:33;13.65;;;6.55;;
23242;SDS011;11790;49.578;11.214;2022-11-15T01:10:33;13.77;;;7.15;;
23242;SDS011;11790;49.578;11.214;2022-11-15T01:15:34;10.20;;;6.57;;
23242;SDS011;11790;49.578;11.214;2022-11-15T01:20:34;14.35;;;7.25;;
23242;SDS011;11790;49.578;11.214;2022-11-15T01:25:34;12.13;;;6.85;;
23242;SDS011;11790;49.578;11.214;2022-11-15T01:30:35;10.95;;;6.53;;
23242;SDS011;11790;49.578;11.214;2022-11-15T01:35:37;12.93;;;6.32;;
23242;SDS011;11790;49.578;11.214;2022-11-15T01:40:38;10.50;;;6.43;;
23242;SDS011;11790;49.578;11.214;2022-11-15T01:45:38;9.75;;;6.05;;
23242;SDS011;11790;49.578;11.214;2022-11-15T01:50:38;7.78;;;5.15;;
23242;SDS011;11790;49.578;11.214;2022-11-15T01:55:39;12.07;;;6.32;;
23242;SDS011;11790;49.578;11.214;2022-11-15T02:00:39;9.68;;;5.68;;
23242;SDS011;11790;49.578;11.214;2022-11-15T02:05:39;9.13;;;6.03;;
23242;SDS011;11790;49.578;11.214;2022-11-15T02:10:41;11.68;;;6.30;;
23242;SDS011;11790;49.578;11.214;2022-11-15T02:15:44;10.10;;;5.72;;
23242;SDS011;11790;49.578;11.214;2022-11-15T02:21:09;9.93;;;5.43;;
23242;SDS011;11790;49.578;11.214;2022-11-15T02:31:39;10.13;;;6.03;;
23242;SDS011;11790;49.578;11.214;2022-11-15T02:36:49;9.70;;;5.47;;
23242;SDS011;11790;49.578;11.214;2022-11-15T02:41:57;9.77;;;6.28;;
23242;SDS011;11790;49.578;11.214;2022-11-15T02:46:58;12.85;;;6.50;;
23242;SDS011;11790;49.578;11.214;2022-11-15T02:57:16;11.07;;;5.88;;
23242;SDS011;11790;49.578;11.214;2022-11-15T03:12:34;9.55;;;6.10;;
23242;SDS011;11790;49.578;11.214;2022-11-15T03:17:38;14.20;;;7.20;;
23242;SDS011;11790;49.578;11.214;2022-11-15T03:22:42;13.77;;;7.95;;
23242;SDS011;11790;49.578;11.214;2022-11-15T03:27:43;13.18;;;7.50;;
23242;SDS011;11790;49.578;11.214;2022-11-15T03:32:47;11.88;;;7.47;;
23242;SDS011;11790;49.578;11.214;2022-11-15T03:37:58;13.18;;;7.55;;
23242;SDS011;11790;49.578;11.214;2022-11-15T03:43:47;11.40;;;7.32;;
23242;SDS011;11790;49.578;11.214;2022-11-15T03:48:21;11.45;;;7.32;;
23242;SDS011;11790;49.578;11.214;2022-11-15T03:53:22;12.00;;;7.63;;
23242;SDS011;11790;49.578;11.214;2022-11-15T03:58:22;13.60;;;7.05;;
23242;SDS011;11790;49.578;11.214;2022-11-15T04:03:23;11.80;;;6.53;;
23242;SDS011;11790;49.578;11.214;2022-11-15T04:08:23;11.13;;;7.45;;
23242;SDS011;11790;49.578;11.214;2022-11-15T04:13:23;13.73;;;7.32;;
23242;SDS011;11790;49.578;11.214;2022-11-15T04:18:23;13.38;;;8.13;;
23242;SDS011;11790;49.578;11.214;2022-11-15T04:23:24;12.07;;;7.35;;
23242;SDS011;11790;49.578;11.214;2022-11-15T04:28:43;11.32;;;6.97;;
23242;SDS011;11790;49.578;11.214;2022-11-15T04:34:02;14.35;;;7.75;;
23242;SDS011;11790;49.578;11.214;2022-11-15T04:39:02;12.82;;;7.45;;
23242;SDS011;11790;49.578;11.214;2022-11-15T04:44:02;13.43;;;8.02;;
23242;SDS011;11790;49.578;11.214;2022-11-15T04:49:03;15.57;;;8.02;;
23242;SDS011;11790;49.578;11.214;2022-11-15T04:54:03;11.70;;;7.07;;
23242;SDS011;11790;49.578;11.214;2022-11-15T04:59:03;14.93;;;7.50;;
23242;SDS011;11790;49.578;11.214;2022-11-15T05:04:03;14.38;;;8.20;;
23242;SDS011;11790;49.578;11.214;2022-11-15T05:09:19;11.18;;;7.43;;
23242;SDS011;11790;49.578;11.214;2022-11-15T05:14:19;11.75;;;7.20;;
23242;SDS011;11790;49.578;11.214;2022-11-15T05:19:19;14.82;;;7.65;;
23242;SDS011;11790;49.578;11.214;2022-11-15T05:24:20;14.30;;;8.00;;
23242;SDS011;11790;49.578;11.214;2022-11-15T05:29:20;24.40;;;8.25;;
23242;SDS011;11790;49.578;11.214;2022-11-15T05:34:20;17.33;;;7.22;;
23242;SDS011;11790;49.578;11.214;2022-11-15T05:39:22;12.00;;;7.72;;
23242;SDS011;11790;49.578;11.214;2022-11-15T05:44:23;11.93;;;7.60;;
23242;SDS011;11790;49.578;11.214;2022-11-15T05:49:24;13.15;;;7.78;;
23242;SDS011;11790;49.578;11.214;2022-11-15T05:54:25;12.75;;;6.80;;
23242;SDS011;11790;49.578;11.214;2022-11-15T05:59:27;11.07;;;7.00;;
23242;SDS011;11790;49.578;11.214;2022-11-15T06:04:28;13.45;;;7.05;;
23242;SDS011;11790;49.578;11.214;2022-11-15T06:09:29;12.37;;;7.57;;
23242;SDS011;11790;49.578;11.214;2022-11-15T06:14:29;10.98;;;6.72;;
23242;SDS011;11790;49.578;11.214;2022-11-15T06:19:29;14.98;;;7.32;;
23242;SDS011;11790;49.578;11.214;2022-11-15T06:24:32;10.73;;;6.90;;
23242;SDS011;11790;49.578;11.214;2022-11-15T06:29:33;10.95;;;6.50;;
23242;SDS011;11790;49.578;11.214;2022-11-15T06:34:33;16.58;;;7.45;;
23242;SDS011;11790;49.578;11.214;2022-11-15T06:39:33;14.05;;;7.30;;
23242;SDS011;11790;49.578;11.214;2022-11-15T06:44:33;16.23;;;9.20;;
23242;SDS011;11790;49.578;11.214;2022-11-15T06:49:34;18.92;;;9.55;;
23242;SDS011;11790;49.578;11.214;2022-11-15T06:54:34;23.27;;;11.30;;
23242;SDS011;11790;49.578;11.214;2022-11-15T06:59:34;28.10;;;11.83;;
23242;SDS011;11790;49.578;11.214;2022-11-15T07:04:34;32.33;;;11.90;;
23242;SDS011;11790;49.578;11.214;2022-11-15T07:09:36;21.30;;;11.45;;
23242;SDS011;11790;49.578;11.214;2022-11-15T07:14:36;21.60;;;11.73;;
23242;SDS011;11790;49.578;11.214;2022-11-15T07:19:36;25.00;;;12.00;;
23242;SDS011;11790;49.578;11.214;2022-11-15T07:24:36;19.80;;;11.52;;
23242;SDS011;11790;49.578;11.214;2022-11-15T07:29:37;20.05;;;12.20;;
23242;SDS011;11790;49.578;11.214;2022-11-15T07:34:37;38.95;;;13.65;;
23242;SDS011;11790;49.578;11.214;2022-11-15T07:39:37;26.17;;;11.68;;
23242;SDS011;11790;49.578;11.214;2022-11-15T07:44:37;28.30;;;11.65;;
23242;SDS011;11790;49.578;11.214;2022-11-15T07:49:38;11.98;;;7.07;;
23242;SDS011;11790;49.578;11.214;2022-11-15T07:54:38;8.05;;;5.03;;
23242;SDS011;11790;49.578;11.214;2022-11-15T07:59:38;9.23;;;5.20;;
23242;SDS011;11790;49.578;11.214;2022-11-15T08:04:38;8.82;;;4.90;;
23242;SDS011;11790;49.578;11.214;2022-11-15T08:09:39;10.15;;;4.45;;
23242;SDS011;11790;49.578;11.214;2022-11-15T08:14:39;7.72;;;4.97;;
23242;SDS011;11790;49.578;11.214;2022-11-15T08:19:39;5.10;;;3.78;;
23242;SDS011;11790;49.578;11.214;2022-11-15T08:24:39;5.97;;;3.72;;
23242;SDS011;11790;49.578;11.214;2022-11-15T08:29:41;6.63;;;3.63;;
23242;SDS011;11790;49.578;11.214;2022-11-15T08:34:41;6.95;;;3.75;;
23242;SDS011;11790;49.578;11.214;2022-11-15T08:39:41;4.85;;;3.70;;
23242;SDS011;11790;49.578;11.214;2022-11-15T08:44:42;6.03;;;3.60;;
23242;SDS011;11790;49.578;11.214;2022-11-15T08:49:42;6.32;;;4.15;;
23242;SDS011;11790;49.578;11.214;2022-11-15T08:54:42;8.02;;;4.40;;
23242;SDS011;11790;49.578;11.214;2022-11-15T08:59:42;7.07;;;4.40;;
23242;SDS011;11790;49.578;11.214;2022-11-15T09:04:43;8.35;;;4.43;;
23242;SDS011;11790;49.578;11.214;2022-11-15T09:09:43;8.35;;;4.68;;
23242;SDS011;11790;49.578;11.214;2022-11-15T09:14:43;7.93;;;4.80;;
23242;SDS011;11790;49.578;11.214;2022-11-15T09:19:44;8.23;;;4.65;;
23242;SDS011;11790;49.578;11.214;2022-11-15T09:24:44;7.53;;;4.95;;
23242;SDS011;11790;49.578;11.214;2022-11-15T09:29:44;8.63;;;4.80;;
23242;SDS011;11790;49.578;11.214;2022-11-15T09:34:45;7.35;;;5.28;;
23242;SDS011;11790;49.578;11.214;2022-11-15T09:39:46;6.75;;;4.28;;
23242;SDS011;11790;49.578;11.214;2022-11-15T09:44:53;7.28;;;4.22;;
23242;SDS011;11790;49.578;11.214;2022-11-15T09:49:56;8.43;;;4.10;;
23242;SDS011;11790;49.578;11.214;2022-11-15T09:54:58;5.70;;;4.05;;
23242;SDS011;11790;49.578;11.214;2022-11-15T10:05:01;5.35;;;3.85;;
23242;SDS011;11790;49.578;11.214;2022-11-15T10:15:15;4.95;;;3.80;;
23242;SDS011;11790;49.578;11.214;2022-11-15T10:20:23;5.20;;;3.58;;
23242;SDS011;11790;49.578;11.214;2022-11-15T10:25:31;4.55;;;2.80;;
23242;SDS011;11790;49.578;11.214;2022-11-15T10:30:39;4.30;;;3.60;;
23242;SDS011;11790;49.578;11.214;2022-11-15T10:35:39;4.05;;;2.67;;
23242;SDS011;11790;49.578;11.214;2022-11-15T10:40:40;3.67;;;2.50;;
23242;SDS011;11790;49.578;11.214;2022-11-15T10:45:41;3.55;;;2.42;;
23242;SDS011;11790;49.578;11.214;2022-11-15T10:50:45;5.65;;;2.50;;
23242;SDS011;11790;49.578;11.214;2022-11-15T10:55:50;3.40;;;2.42;;
23242;SDS011;11790;49.578;11.214;2022-11-15T11:00:52;3.85;;;2.45;;
23242;SDS011;11790;49.578;11.214;2022-11-15T11:06:15;2.83;;;2.22;;
23242;SDS011;11790;49.578;11.214;2022-11-15T11:11:13;2.88;;;1.98;;
23242;SDS011;11790;49.578;11.214;2022-11-15T11:21:14;3.35;;;2.33;;
23242;SDS011;11790;49.578;11.214;2022-11-15T11:37:54;3.53;;;2.10;;
23242;SDS011;11790;49.578;11.214;2022-11-15T11:47:38;2.58;;;1.70;;
23242;SDS011;11790;49.578;11.214;2022-11-15T11:52:53;3.75;;;1.90;;
23242;SDS011;11790;49.578;11.214;2022-11-15T11:58:00;3.28;;;2.00;;
23242;SDS011;11790;49.578;11.214;2022-11-15T12:08:15;3.45;;;2.20;;
23242;SDS011;11790;49.578;11.214;2022-11-15T12:13:21;5.70;;;1.92;;
23242;SDS011;11790;49.578;11.214;2022-11-15T12:18:24;1.83;;;1.48;;
23242;SDS011;11790;49.578;11.214;2022-11-15T12:23:28;4.97;;;1.83;;
23242;SDS011;11790;49.578;11.214;2022-11-15T12:33:49;2.83;;;1.80;;
23242;SDS011;11790;49.578;11.214;2022-11-15T12:43:53;5.60;;;2.15;;
23242;SDS011;11790;49.578;11.214;2022-11-15T12:48:55;5.47;;;2.35;;
23242;SDS011;11790;49.578;11.214;2022-11-15T12:53:55;5.18;;;2.50;;
23242;SDS011;11790;49.578;11.214;2022-11-15T12:58:57;3.08;;;2.20;;
23242;SDS011;11790;49.578;11.214;2022-11-15T13:09:50;7.20;;;4.45;;
23242;SDS011;11790;49.578;11.214;2022-11-15T13:14:53;7.88;;;3.20;;
23242;SDS011;11790;49.578;11.214;2022-11-15T13:19:56;5.50;;;2.25;;
23242;SDS011;11790;49.578;11.214;2022-11-15T13:24:59;5.83;;;2.40;;
23242;SDS011;11790;49.578;11.214;2022-11-15T13:30:00;4.68;;;2.28;;
23242;SDS011;11790;49.578;11.214;2022-11-15T13:35:00;4.35;;;2.78;;
23242;SDS011;11790;49.578;11.214;2022-11-15T13:40:16;4.25;;;2.38;;
23242;SDS011;11790;49.578;11.214;2022-11-15T13:45:19;4.50;;;2.63;;
23242;SDS011;11790;49.578;11.214;2022-11-15T13:50:21;4.72;;;2.63;;
23242;SDS011;11790;49.578;11.214;2022-11-15T13:55:22;3.50;;;2.30;;
23242;SDS011;11790;49.578;11.214;2022-11-15T14:00:57;5.80;;;2.90;;
23242;SDS011;11790;49.578;11.214;2022-11-15T14:06:03;6.57;;;3.35;;
23242;SDS011;11790;49.578;11.214;2022-11-15T14:11:05;7.03;;;3.00;;
23242;SDS011;11790;49.578;11.214;2022-11-15T14:16:12;7.25;;;2.97;;
23242;SDS011;11790;49.578;11.214;2022-11-15T14:21:13;5.03;;;3.10;;
23242;SDS011;11790;49.578;11.214;2022-11-15T14:26:26;5.95;;;3.17;;
23242;SDS011;11790;49.578;11.214;2022-11-15T14:31:27;5.57;;;3.55;;
23242;SDS011;11790;49.578;11.214;2022-11-15T14:36:27;8.35;;;3.25;;
23242;SDS011;11790;49.578;11.214;2022-11-15T14:41:27;6.30;;;3.38;;
23242;SDS011;11790;49.578;11.214;2022-11-15T14:46:32;5.97;;;3.55;;
23242;SDS011;11790;49.578;11.214;2022-11-15T14:51:32;4.55;;;2.75;;
23242;SDS011;11790;49.578;11.214;2022-11-15T14:56:33;8.23;;;3.33;;
23242;SDS011;11790;49.578;11.214;2022-11-15T15:01:33;6.97;;;3.40;;
23242;SDS011;11790;49.578;11.214;2022-11-15T15:06:33;8.38;;;3.58;;
23242;SDS011;11790;49.578;11.214;2022-11-15T15:11:33;9.45;;;3.67;;
23242;SDS011;11790;49.578;11.214;2022-11-15T15:16:34;7.93;;;3.00;;
23242;SDS011;11790;49.578;11.214;2022-11-15T15:21:34;8.30;;;3.85;;
23242;SDS011;11790;49.578;11.214;2022-11-15T15:26:35;8.27;;;3.92;;
23242;SDS011;11790;49.578;11.214;2022-11-15T15:31:36;14.70;;;5.05;;
23242;SDS011;11790;49.578;11.214;2022-11-15T15:36:36;12.20;;;5.22;;
23242;SDS011;11790;49.578;11.214;2022-11-15T15:41:36;17.42;;;5.85;;
23242;SDS011;11790;49.578;11.214;2022-11-15T15:46:37;14.07;;;5.45;;
23242;SDS011;11790;49.578;11.214;2022-11-15T15:51:37;16.65;;;5.88;;
23242;SDS011;11790;49.578;11.214;2022-11-15T15:56:37;13.10;;;6.68;;
23242;SDS011;11790;49.578;11.214;2022-11-15T16:01:37;17.08;;;6.22;;
23242;SDS011;11790;49.578;11.214;2022-11-15T16:06:38;16.02;;;6.32;;
23242;SDS011;11790;49.578;11.214;2022-11-15T16:11:40;15.77;;;7.00;;
23242;SDS011;11790;49.578;11.214;2022-11-15T16:16:41;12.70;;;6.40;;
23242;SDS011;11790;49.578;11.214;2022-11-15T16:21:41;18.05;;;8.48;;
23242;SDS011;11790;49.578;11.214;2022-11-15T16:26:41;18.93;;;8.13;;
23242;SDS011;11790;49.578;11.214;2022-11-15T16:31:42;17.95;;;7.32;;
23242;SDS011;11790;49.578;11.214;2022-11-15T16:36:42;17.88;;;7.47;;
23242;SDS011;11790;49.578;11.214;2022-11-15T16:41:42;13.75;;;6.85;;
23242;SDS011;11790;49.578;11.214;2022-11-15T16:46:46;20.25;;;7.78;;
23242;SDS011;11790;49.578;11.214;2022-11-15T16:51:50;14.25;;;7.00;;
23242;SDS011;11790;49.578;11.214;2022-11-15T16:56:51;13.05;;;7.65;;
23242;SDS011;11790;49.578;11.214;2022-11-15T17:01:51;10.87;;;7.03;;
23242;SDS011;11790;49.578;11.214;2022-11-15T17:06:52;10.80;;;6.97;;
23242;SDS011;11790;49.578;11.214;2022-11-15T17:11:53;15.55;;;7.95;;
23242;SDS011;11790;49.578;11.214;2022-11-15T17:16:53;16.05;;;8.20;;
23242;SDS011;11790;49.578;11.214;2022-11-15T17:21:53;24.52;;;12.27;;
23242;SDS011;11790;49.578;11.214;2022-11-15T17:26:53;15.48;;;8.40;;
23242;SDS011;11790;49.578;11.214;2022-11-15T17:31:54;13.50;;;7.25;;
23242;SDS011;11790;49.578;11.214;2022-11-15T17:36:54;14.88;;;7.82;;
23242;SDS011;11790;49.578;11.214;2022-11-15T17:41:54;16.03;;;8.30;;
23242;SDS011;11790;49.578;11.214;2022-11-15T17:46:54;22.43;;;9.13;;
23242;SDS011;11790;49.578;11.214;2022-11-15T17:51:56;18.33;;;8.50;;
23242;SDS011;11790;49.578;11.214;2022-11-15T17:56:56;14.77;;;8.38;;
23242;SDS011;11790;49.578;11.214;2022-11-15T18:01:56;16.45;;;8.80;;
23242;SDS011;11790;49.578;11.214;2022-11-15T18:06:56;14.40;;;7.95;;
23242;SDS011;11790;49.578;11.214;2022-11-15T18:11:57;15.55;;;8.93;;
23242;SDS011;11790;49.578;11.214;2022-11-15T18:16:57;13.82;;;8.10;;
23242;SDS011;11790;49.578;11.214;2022-11-15T18:21:57;22.02;;;9.07;;
23242;SDS011;11790;49.578;11.214;2022-11-15T18:27:01;13.68;;;7.72;;
23242;SDS011;11790;49.578;11.214;2022-11-15T18:32:03;19.85;;;8.95;;
23242;SDS011;11790;49.578;11.214;2022-11-15T18:37:05;21.23;;;8.50;;
23242;SDS011;11790;49.578;11.214;2022-11-15T18:42:06;16.85;;;9.48;;
23242;SDS011;11790;49.578;11.214;2022-11-15T18:47:06;20.20;;;10.47;;
23242;SDS011;11790;49.578;11.214;2022-11-15T18:52:07;17.13;;;9.60;;
23242;SDS011;11790;49.578;11.214;2022-11-15T18:57:07;14.75;;;9.10;;
23242;SDS011;11790;49.578;11.214;2022-11-15T19:02:09;14.95;;;9.20;;
23242;SDS011;11790;49.578;11.214;2022-11-15T19:07:10;15.88;;;9.02;;
23242;SDS011;11790;49.578;11.214;2022-11-15T19:12:10;15.18;;;9.23;;
23242;SDS011;11790;49.578;11.214;2022-11-15T19:17:11;14.52;;;8.63;;
23242;SDS011;11790;49.578;11.214;2022-11-15T19:22:11;16.63;;;8.82;;
23242;SDS011;11790;49.578;11.214;2022-11-15T19:27:11;18.30;;;9.07;;
23242;SDS011;11790;49.578;11.214;2022-11-15T19:32:12;13.48;;;8.40;;
23242;SDS011;11790;49.578;11.214;2022-11-15T19:37:12;13.43;;;8.10;;
23242;SDS011;11790;49.578;11.214;2022-11-15T19:42:12;13.77;;;7.80;;
23242;SDS011;11790;49.578;11.214;2022-11-15T19:47:13;13.82;;;8.23;;
23242;SDS011;11790;49.578;11.214;2022-11-15T19:52:13;12.88;;;8.32;;
23242;SDS011;11790;49.578;11.214;2022-11-15T19:57:13;13.15;;;8.50;;
23242;SDS011;11790;49.578;11.214;2022-11-15T20:02:13;16.63;;;8.48;;
23242;SDS011;11790;49.578;11.214;2022-11-15T20:07:14;18.15;;;11.05;;
23242;SDS011;11790;49.578;11.214;2022-11-15T20:12:14;16.13;;;9.00;;
23242;SDS011;11790;49.578;11.214;2022-11-15T20:17:14;13.47;;;8.23;;
23242;SDS011;11790;49.578;11.214;2022-11-15T20:22:15;12.35;;;7.78;;
23242;SDS011;11790;49.578;11.214;2022-11-15T20:27:15;10.98;;;7.25;;
23242;SDS011;11790;49.578;11.214;2022-11-15T20:32:15;14.15;;;8.45;;
23242;SDS011;11790;49.578;11.214;2022-11-15T20:37:15;16.10;;;8.73;;
23242;SDS011;11790;49.578;11.214;2022-11-15T20:42:16;40.57;;;22.10;;
23242;SDS011;11790;49.578;11.214;2022-11-15T20:47:16;18.60;;;11.18;;
23242;SDS011;11790;49.578;11.214;2022-11-15T20:52:16;15.57;;;8.52;;
23242;SDS011;11790;49.578;11.214;2022-11-15T20:57:16;13.38;;;8.90;;
23242;SDS011;11790;49.578;11.214;2022-11-15T21:02:17;15.40;;;8.10;;
23242;SDS011;11790;49.578;11.214;2022-11-15T21:07:17;14.18;;;8.32;;
23242;SDS011;11790;49.578;11.214;2022-11-15T21:12:17;16.60;;;9.93;;
23242;SDS011;11790;49.578;11.214;2022-11-15T21:17:18;16.58;;;9.32;;
23242;SDS011;11790;49.578;11.214;2022-11-15T21:22:18;16.00;;;9.77;;
23242;SDS011;11790;49.578;11.214;2022-11-15T21:27:18;15.82;;;8.93;;
23242;SDS011;11790;49.578;11.214;2022-11-15T21:32:18;15.38;;;10.13;;
23242;SDS011;11790;49.578;11.214;2022-11-15T21:37:19;14.48;;;8.75;;
23242;SDS011;11790;49.578;11.214;2022-11-15T21:42:19;13.52;;;8.25;;
23242;SDS011;11790;49.578;11.214;2022-11-15T21:47:19;12.85;;;8.63;;
23242;SDS011;11790;49.578;11.214;2022-11-15T21:52:19;13.25;;;8.23;;
23242;SDS011;11790;49.578;11.214;2022-11-15T21:57:20;13.35;;;8.15;;
23242;SDS011;11790;49.578;11.214;2022-11-15T22:02:20;13.15;;;8.35;;
23242;SDS011;11790;49.578;11.214;2022-11-15T22:07:20;12.80;;;8.27;;
23242;SDS011;11790;49.578;11.214;2022-11-15T22:12:21;17.87;;;8.57;;
23242;SDS011;11790;49.578;11.214;2022-11-15T22:17:21;13.70;;;8.50;;
23242;SDS011;11790;49.578;11.214;2022-11-15T22:22:23;16.17;;;8.80;;
23242;SDS011;11790;49.578;11.214;2022-11-15T22:27:23;15.98;;;8.80;;
23242;SDS011;11790;49.578;11.214;2022-11-15T22:32:24;18.25;;;9.40;;
23242;SDS011;11790;49.578;11.214;2022-11-15T22:37:24;19.15;;;10.10;;
23242;SDS011;11790;49.578;11.214;2022-11-15T22:42:24;19.08;;;10.13;;
23242;SDS011;11790;49.578;11.214;2022-11-15T22:47:24;18.95;;;10.63;;
23242;SDS011;11790;49.578;11.214;2022-11-15T22:52:25;19.33;;;10.25;;
23242;SDS011;11790;49.578;11.214;2022-11-15T22:57:25;15.70;;;9.57;;
23242;SDS011;11790;49.578;11.214;2022-11-15T23:02:25;19.35;;;11.05;;
23242;SDS011;11790;49.578;11.214;2022-11-15T23:07:26;18.15;;;11.27;;
23242;SDS011;11790;49.578;11.214;2022-11-15T23:12:26;20.75;;;11.50;;
23242;SDS011;11790;49.578;11.214;2022-11-15T23:17:45;20.45;;;11.30;;
23242;SDS011;11790;49.578;11.214;2022-11-15T23:22:45;21.65;;;12.25;;
23242;SDS011;11790;49.578;11.214;2022-11-15T23:27:46;20.98;;;12.30;;
23242;SDS011;11790;49.578;11.214;2022-11-15T23:32:46;23.95;;;13.55;;
23242;SDS011;11790;49.578;11.214;2022-11-15T23:38:05;23.33;;;12.85;;
23242;SDS011;11790;49.578;11.214;2022-11-15T23:43:05;22.08;;;11.88;;
23242;SDS011;11790;49.578;11.214;2022-11-15T23:48:05;23.15;;;12.38;;
23242;SDS011;11790;49.578;11.214;2022-11-15T23:53:05;19.38;;;10.80;;
23242;SDS011;11790;49.578;11.214;2022-11-15T23:58:06;18.23;;;10.60;;
